Time;durP1;ratioP1;P1;durP2;ratioP2;P2;SDS_P1;SDS_P2;PMS_P1;PMS_P2;Temp;Humidity;BMP_temperature;BMP_pressure;BME280_temperature;BME280_humidity;BME280_pressure;Samples;Min_cycle;Max_cycle;Signal;HPM_P1;HPM_P2
2023/09/08 00:00:37;;;;;;;9.20;8.40;;;18.10;99.90;;;;;;5010865;28;20498;-66
2023/09/08 00:03:03;;;;;;;10.60;9.57;;;18.10;99.90;;;;;;5010763;28;20257;-66
2023/09/08 00:05:29;;;;;;;9.80;8.97;;;18.00;99.90;;;;;;5015528;28;20223;-66
2023/09/08 00:07:54;;;;;;;9.60;8.80;;;18.00;99.90;;;;;;5015332;28;20182;-66
2023/09/08 00:10:20;;;;;;;10.80;9.80;;;18.10;99.90;;;;;;5007161;28;20823;-67
2023/09/08 00:12:45;;;;;;;9.67;8.10;;;18.00;99.90;;;;;;5015343;28;20174;-66
2023/09/08 00:15:11;;;;;;;12.00;10.80;;;17.90;99.90;;;;;;5015763;28;20178;-67
2023/09/08 00:17:37;;;;;;;10.03;9.13;;;17.90;99.90;;;;;;5009777;28;20179;-66
2023/09/08 00:20:08;;;;;;;10.40;9.50;;;18.00;99.90;;;;;;5013760;28;20652;-66
2023/09/08 00:22:34;;;;;;;11.07;10.17;;;17.90;99.90;;;;;;5012104;28;20442;-66
2023/09/08 00:24:59;;;;;;;10.87;9.77;;;17.90;99.90;;;;;;5014631;28;20500;-67
2023/09/08 00:27:25;;;;;;;11.10;10.20;;;17.90;99.90;;;;;;5014540;28;20184;-67
2023/09/08 00:29:50;;;;;;;11.43;10.53;;;17.90;99.90;;;;;;5014721;28;20191;-66
2023/09/08 00:32:16;;;;;;;10.83;10.03;;;17.90;99.90;;;;;;5009020;28;20179;-66
2023/09/08 00:34:41;;;;;;;11.63;10.70;;;17.90;99.90;;;;;;5014101;28;20206;-66
2023/09/08 00:37:09;;;;;;;11.00;10.10;;;17.80;99.90;;;;;;5014413;28;20680;-66
2023/09/08 00:39:35;;;;;;;11.53;10.43;;;17.80;99.90;;;;;;5014153;28;20230;-66
2023/09/08 00:42:01;;;;;;;11.27;10.07;;;17.80;99.90;;;;;;5014071;28;20461;-66
2023/09/08 00:44:27;;;;;;;12.30;11.00;;;17.80;99.90;;;;;;5014740;28;20496;-67
2023/09/08 00:46:52;;;;;;;12.20;11.00;;;17.80;99.90;;;;;;5014007;28;20163;-66
2023/09/08 00:49:18;;;;;;;11.20;10.10;;;17.80;99.90;;;;;;5012151;28;20179;-66
2023/09/08 00:51:44;;;;;;;11.23;10.13;;;17.80;99.90;;;;;;5014151;28;20198;-66
2023/09/08 00:54:09;;;;;;;10.13;9.33;;;17.80;99.90;;;;;;5014524;28;20205;-66
2023/09/08 00:56:37;;;;;;;13.93;10.10;;;17.70;99.90;;;;;;5014912;28;20414;-66
2023/09/08 00:59:03;;;;;;;9.47;8.67;;;17.70;99.90;;;;;;5011305;28;20238;-67
2023/09/08 01:01:29;;;;;;;9.93;9.03;;;17.60;99.90;;;;;;5013920;28;20809;-66
2023/09/08 01:03:55;;;;;;;10.07;9.27;;;17.60;99.90;;;;;;5013063;28;20457;-66
2023/09/08 01:06:21;;;;;;;10.67;9.77;;;17.50;99.90;;;;;;5014574;28;20170;-67
2023/09/08 01:08:47;;;;;;;9.27;8.33;;;17.40;99.90;;;;;;5013551;28;20619;-66
2023/09/08 01:11:13;;;;;;;10.87;10.00;;;17.40;99.90;;;;;;5010948;28;20469;-65
2023/09/08 01:13:39;;;;;;;16.67;9.33;;;17.30;99.90;;;;;;5014070;28;20590;-66
2023/09/08 01:16:04;;;;;;;9.53;8.73;;;17.30;99.90;;;;;;5013549;28;20178;-66
2023/09/08 01:18:30;;;;;;;9.90;9.00;;;17.30;99.90;;;;;;5012852;28;20195;-66
2023/09/08 01:21:32;;;;;;;11.00;9.90;;;17.30;99.90;;;;;;5011584;28;20523;-67
2023/09/08 01:24:22;;;;;;;10.30;9.33;;;17.30;99.90;;;;;;5011745;28;20206;-67
2023/09/08 01:26:48;;;;;;;10.60;9.60;;;17.30;99.90;;;;;;5014311;28;20430;-65
2023/09/08 01:29:16;;;;;;;10.23;9.37;;;17.20;99.90;;;;;;5012062;28;20445;-67
2023/09/08 01:31:42;;;;;;;14.20;11.10;;;17.20;99.90;;;;;;5005756;28;20265;-66
2023/09/08 01:34:08;;;;;;;9.73;8.93;;;17.10;99.90;;;;;;5012929;28;20516;-65
2023/09/08 01:36:34;;;;;;;10.57;9.67;;;17.10;99.90;;;;;;5014215;28;20555;-67
2023/09/08 01:39:01;;;;;;;9.07;8.37;;;17.10;99.90;;;;;;5011630;28;20482;-67
2023/09/08 01:41:26;;;;;;;11.73;10.30;;;17.10;99.90;;;;;;5013847;28;20418;-68
2023/09/08 01:43:52;;;;;;;10.33;9.50;;;17.10;99.90;;;;;;5012658;28;20453;-66
2023/09/08 01:46:17;;;;;;;10.37;9.37;;;17.10;99.90;;;;;;5012914;28;20186;-67
2023/09/08 01:48:43;;;;;;;10.13;9.03;;;16.90;99.90;;;;;;5012730;28;20195;-65
2023/09/08 01:51:08;;;;;;;10.60;9.70;;;16.90;99.90;;;;;;5012330;28;20183;-67
2023/09/08 01:53:34;;;;;;;10.50;9.60;;;16.90;99.90;;;;;;5012179;28;20206;-67
2023/09/08 01:55:59;;;;;;;8.93;8.07;;;16.90;99.90;;;;;;5013693;28;20175;-66
2023/09/08 01:58:25;;;;;;;10.03;9.30;;;16.80;99.90;;;;;;5009450;28;20221;-65
2023/09/08 02:00:54;;;;;;;10.07;9.07;;;16.70;99.90;;;;;;5012709;28;20178;-68
2023/09/08 02:03:19;;;;;;;9.73;8.93;;;16.70;99.90;;;;;;5012337;28;20215;-67
2023/09/08 02:05:45;;;;;;;9.93;8.93;;;16.60;99.90;;;;;;5012571;28;20469;-67
2023/09/08 02:08:12;;;;;;;11.00;10.10;;;16.60;99.90;;;;;;5011738;28;20171;-67
2023/09/08 02:10:40;;;;;;;12.00;11.00;;;16.60;99.90;;;;;;5012070;28;20393;-67
2023/09/08 02:13:05;;;;;;;12.87;11.67;;;16.60;99.90;;;;;;5011187;28;20553;-67
2023/09/08 02:15:34;;;;;;;9.53;8.70;;;16.60;99.90;;;;;;5013120;28;20516;-67
2023/09/08 02:17:59;;;;;;;10.10;9.20;;;16.50;99.90;;;;;;5010461;28;20521;-67
2023/09/08 02:20:25;;;;;;;10.20;9.20;;;16.50;99.90;;;;;;5009984;28;20507;-67
2023/09/08 02:22:54;;;;;;;10.87;10.00;;;16.50;99.90;;;;;;5011696;28;20178;-67
2023/09/08 02:25:20;;;;;;;9.90;9.10;;;16.50;99.90;;;;;;5011474;28;20175;-67
2023/09/08 02:27:46;;;;;;;10.47;9.57;;;16.50;99.90;;;;;;5010206;28;20437;-67
2023/09/08 02:30:11;;;;;;;11.00;10.03;;;16.50;99.90;;;;;;5006115;28;20214;-67
2023/09/08 02:32:37;;;;;;;10.70;9.83;;;16.50;99.90;;;;;;5011168;28;20181;-67
2023/09/08 02:35:03;;;;;;;10.03;9.13;;;16.50;99.90;;;;;;5011923;28;20195;-67
2023/09/08 02:37:28;;;;;;;10.23;9.20;;;16.50;99.90;;;;;;5011879;28;20179;-66
2023/09/08 02:39:54;;;;;;;11.37;10.40;;;16.50;99.90;;;;;;5010421;28;20686;-67
2023/09/08 02:42:19;;;;;;;12.00;11.00;;;16.50;99.90;;;;;;5011349;28;20209;-67
2023/09/08 02:44:45;;;;;;;13.70;10.30;;;16.40;99.90;;;;;;5010627;28;20301;-66
2023/09/08 02:47:10;;;;;;;13.17;11.20;;;16.40;99.90;;;;;;5011009;28;20176;-67
2023/09/08 02:49:36;;;;;;;10.03;9.17;;;16.40;99.90;;;;;;5010235;28;20183;-67
2023/09/08 02:52:01;;;;;;;10.77;9.80;;;16.30;99.90;;;;;;5012638;28;20176;-66
2023/09/08 02:54:27;;;;;;;11.67;10.47;;;16.40;99.90;;;;;;5010306;28;20246;-67
2023/09/08 02:56:52;;;;;;;11.87;10.77;;;16.40;99.90;;;;;;5011713;28;20198;-67
2023/09/08 02:59:18;;;;;;;9.90;9.10;;;16.30;99.90;;;;;;5009327;28;21778;-67
2023/09/08 03:01:43;;;;;;;11.97;9.30;;;16.30;99.90;;;;;;5011609;28;20589;-66
2023/09/08 03:04:09;;;;;;;11.27;10.10;;;16.40;99.90;;;;;;5011391;28;20206;-67
2023/09/08 03:06:34;;;;;;;11.63;10.57;;;16.50;99.90;;;;;;5010335;28;20561;-66
2023/09/08 03:09:00;;;;;;;11.10;10.00;;;16.50;99.90;;;;;;5009669;28;20183;-66
2023/09/08 03:11:25;;;;;;;11.20;10.20;;;16.50;99.90;;;;;;5009244;28;20656;-67
2023/09/08 03:13:51;;;;;;;11.77;10.57;;;16.60;99.90;;;;;;5010419;28;20289;-67
2023/09/08 03:16:16;;;;;;;10.70;9.70;;;16.60;99.90;;;;;;5007285;28;20276;-67
2023/09/08 03:18:42;;;;;;;10.73;9.73;;;16.60;99.90;;;;;;5012196;28;20233;-66
2023/09/08 03:21:10;;;;;;;11.93;10.20;;;16.60;99.90;;;;;;5009448;28;20225;-67
2023/09/08 03:23:40;;;;;;;11.00;9.80;;;16.60;99.90;;;;;;5011090;28;20224;-66
2023/09/08 03:26:06;;;;;;;9.97;9.07;;;16.50;99.90;;;;;;5010263;28;20895;-67
2023/09/08 03:28:33;;;;;;;10.47;9.47;;;16.50;99.90;;;;;;5012097;28;20430;-67
2023/09/08 03:30:59;;;;;;;10.63;9.73;;;16.40;99.90;;;;;;5010233;28;20521;-67
2023/09/08 03:33:24;;;;;;;11.13;10.17;;;16.40;99.90;;;;;;5011677;28;20442;-67
2023/09/08 03:35:50;;;;;;;12.33;9.50;;;16.50;99.90;;;;;;5008890;28;20171;-67
2023/09/08 03:38:15;;;;;;;11.43;10.43;;;16.50;99.90;;;;;;5009075;28;20193;-66
2023/09/08 03:40:41;;;;;;;10.87;9.90;;;16.40;99.90;;;;;;5010891;28;20172;-67
2023/09/08 03:43:06;;;;;;;10.77;9.77;;;16.40;99.90;;;;;;5011599;28;20191;-68
2023/09/08 03:45:32;;;;;;;12.70;10.47;;;16.30;99.90;;;;;;5010367;28;20702;-66
2023/09/08 03:47:57;;;;;;;11.13;10.20;;;16.20;99.90;;;;;;5010989;28;20229;-68
2023/09/08 03:50:23;;;;;;;11.63;10.53;;;16.10;99.90;;;;;;5010783;28;20198;-67
2023/09/08 03:52:49;;;;;;;11.20;10.20;;;16.10;99.90;;;;;;5011004;28;20206;-67
2023/09/08 03:55:14;;;;;;;9.80;8.90;;;16.00;99.90;;;;;;5010093;28;20186;-68
2023/09/08 03:57:40;;;;;;;10.40;9.50;;;16.00;99.90;;;;;;5010858;28;20186;-67
2023/09/08 04:00:06;;;;;;;11.80;10.70;;;16.00;99.90;;;;;;5009260;28;20203;-66
2023/09/08 04:02:32;;;;;;;11.87;10.70;;;15.90;99.90;;;;;;5009737;28;20190;-68
2023/09/08 04:04:58;;;;;;;14.00;11.50;;;15.90;99.90;;;;;;5011455;28;20809;-67
2023/09/08 04:07:24;;;;;;;12.63;11.33;;;15.90;99.90;;;;;;5009935;28;20434;-67
2023/09/08 04:09:49;;;;;;;12.00;10.90;;;15.90;99.90;;;;;;5011738;28;20194;-67
2023/09/08 04:12:15;;;;;;;11.73;10.57;;;15.90;99.90;;;;;;5010781;28;20179;-68
2023/09/08 04:14:41;;;;;;;11.80;10.30;;;15.90;99.90;;;;;;5010710;28;20573;-66
2023/09/08 04:17:06;;;;;;;12.70;11.60;;;15.80;99.90;;;;;;5009792;28;20183;-68
2023/09/08 04:19:32;;;;;;;12.53;11.37;;;15.80;99.90;;;;;;5010537;28;20194;-67
2023/09/08 04:21:57;;;;;;;12.73;11.63;;;15.80;99.90;;;;;;5009772;28;20183;-67
2023/09/08 04:24:23;;;;;;;13.80;12.60;;;15.80;99.90;;;;;;5010277;28;20198;-67
2023/09/08 04:26:48;;;;;;;13.77;12.53;;;15.80;99.90;;;;;;5011688;28;20703;-68
2023/09/08 04:29:13;;;;;;;12.60;11.30;;;15.80;99.90;;;;;;5009903;28;20187;-66
2023/09/08 04:31:39;;;;;;;13.93;12.47;;;15.70;99.90;;;;;;5008371;28;20214;-66
2023/09/08 04:34:04;;;;;;;14.23;13.03;;;15.80;99.90;;;;;;5007773;28;20205;-67
2023/09/08 04:36:30;;;;;;;13.70;12.47;;;15.70;99.90;;;;;;5008722;28;20265;-67
2023/09/08 04:38:56;;;;;;;14.03;12.53;;;15.70;99.90;;;;;;5008308;28;20202;-67
2023/09/08 04:41:22;;;;;;;13.47;12.07;;;15.70;99.90;;;;;;5009812;28;20528;-68
2023/09/08 04:43:47;;;;;;;13.13;11.83;;;15.60;99.90;;;;;;5009374;28;20205;-66
2023/09/08 04:46:13;;;;;;;11.80;10.80;;;15.60;99.90;;;;;;5011663;28;20179;-67
2023/09/08 04:48:38;;;;;;;12.80;11.70;;;15.60;99.90;;;;;;5010519;28;20597;-67
2023/09/08 04:51:04;;;;;;;13.00;11.80;;;15.70;99.90;;;;;;5014328;28;20205;-67
2023/09/08 04:53:29;;;;;;;12.10;11.10;;;15.70;99.90;;;;;;5011269;28;20202;-66
2023/09/08 04:55:55;;;;;;;11.77;10.67;;;15.70;99.90;;;;;;5006532;28;20186;-67
2023/09/08 04:58:20;;;;;;;16.20;14.60;;;15.80;99.90;;;;;;5013698;28;20225;-66
2023/09/08 05:00:46;;;;;;;14.87;13.13;;;15.80;99.90;;;;;;5010492;28;20234;-68
2023/09/08 05:03:11;;;;;;;19.30;12.40;;;15.80;99.90;;;;;;5003964;28;20207;-67
2023/09/08 05:05:38;;;;;;;14.27;12.97;;;15.90;99.90;;;;;;5012598;28;20332;-67
2023/09/08 05:08:04;;;;;;;13.20;11.83;;;15.90;99.90;;;;;;5014536;28;20213;-67
2023/09/08 05:10:29;;;;;;;13.47;12.23;;;15.90;99.90;;;;;;5014488;28;20426;-67
2023/09/08 05:12:55;;;;;;;11.80;10.67;;;16.00;99.90;;;;;;5012632;28;20500;-67
2023/09/08 05:15:21;;;;;;;11.37;10.30;;;15.90;99.90;;;;;;5012012;28;20187;-67
2023/09/08 05:17:47;;;;;;;13.37;12.17;;;15.90;99.90;;;;;;5012649;28;20174;-67
2023/09/08 05:20:12;;;;;;;11.87;10.73;;;16.10;99.90;;;;;;5013353;28;20465;-67
2023/09/08 05:22:38;;;;;;;16.30;14.77;;;16.10;99.90;;;;;;5013531;28;20448;-67
2023/09/08 05:25:04;;;;;;;12.33;11.23;;;16.20;99.90;;;;;;5013213;28;20182;-68
2023/09/08 05:27:30;;;;;;;15.17;13.83;;;16.20;99.90;;;;;;5013236;28;20213;-68
2023/09/08 05:29:55;;;;;;;16.77;15.07;;;16.30;99.90;;;;;;5014231;28;20418;-67
2023/09/08 05:32:21;;;;;;;14.00;12.80;;;16.40;99.90;;;;;;5014134;28;20170;-68
2023/09/08 05:34:46;;;;;;;12.50;11.40;;;16.50;99.90;;;;;;5013100;28;20203;-66
2023/09/08 05:37:11;;;;;;;14.00;12.70;;;16.70;99.90;;;;;;5009392;28;20190;-66
2023/09/08 05:39:37;;;;;;;12.20;11.10;;;16.80;99.90;;;;;;5013718;28;20621;-68
2023/09/08 05:42:03;;;;;;;13.27;11.87;;;17.00;99.90;;;;;;5014120;28;20175;-67
2023/09/08 05:44:29;;;;;;;13.47;12.20;;;17.20;99.90;;;;;;5013712;28;20201;-67
2023/09/08 05:46:54;;;;;;;13.63;12.40;;;17.40;99.90;;;;;;5011566;28;20182;-66
2023/09/08 05:49:20;;;;;;;13.70;12.40;;;17.60;99.90;;;;;;5013665;28;20171;-68
2023/09/08 05:51:45;;;;;;;15.47;13.87;;;17.70;99.90;;;;;;5013068;28;20186;-67
2023/09/08 05:54:11;;;;;;;15.83;13.50;;;17.90;99.90;;;;;;5013139;28;20199;-68
2023/09/08 05:56:37;;;;;;;13.10;11.80;;;18.00;99.90;;;;;;5010453;28;20182;-67
2023/09/08 05:59:03;;;;;;;13.77;11.57;;;18.00;99.90;;;;;;5011570;28;20202;-67
2023/09/08 06:01:29;;;;;;;13.70;12.37;;;18.10;99.90;;;;;;5011676;28;20438;-68
2023/09/08 06:03:55;;;;;;;14.90;13.40;;;18.20;99.90;;;;;;5012548;28;20582;-68
2023/09/08 06:06:21;;;;;;;13.77;12.30;;;18.30;99.90;;;;;;5012760;28;20484;-67
2023/09/08 06:08:47;;;;;;;15.20;13.70;;;18.50;99.90;;;;;;5011580;28;20441;-67
2023/09/08 06:11:12;;;;;;;14.07;12.73;;;18.60;99.90;;;;;;5012396;28;20178;-67
2023/09/08 06:13:38;;;;;;;16.50;14.93;;;18.70;99.90;;;;;;5011762;28;20564;-68
2023/09/08 06:16:04;;;;;;;15.40;14.00;;;18.80;99.90;;;;;;5010360;28;20175;-67
2023/09/08 06:18:33;;;;;;;15.50;13.97;;;18.90;99.90;;;;;;5009941;28;20496;-67
2023/09/08 06:20:59;;;;;;;17.20;13.60;;;18.90;99.90;;;;;;5012041;28;20171;-67
2023/09/08 06:23:24;;;;;;;12.73;11.40;;;19.00;99.90;;;;;;5011420;28;20492;-67
2023/09/08 06:25:50;;;;;;;13.27;12.00;;;19.30;99.90;;;;;;5012520;28;20187;-66
2023/09/08 06:28:16;;;;;;;17.53;13.03;;;19.40;99.90;;;;;;5010352;28;20179;-67
2023/09/08 06:30:41;;;;;;;12.73;11.50;;;19.60;99.90;;;;;;5012844;28;20179;-67
2023/09/08 06:33:08;;;;;;;11.60;10.60;;;19.90;99.90;;;;;;5012774;28;20222;-66
2023/09/08 06:35:33;;;;;;;11.93;10.93;;;20.20;99.90;;;;;;5011028;28;20190;-67
2023/09/08 06:37:59;;;;;;;12.70;11.37;;;20.60;99.90;;;;;;5008667;28;20445;-67
2023/09/08 06:40:25;;;;;;;13.60;10.80;;;20.90;99.90;;;;;;5010698;28;20545;-67
2023/09/08 06:42:50;;;;;;;10.17;9.30;;;21.10;99.90;;;;;;5010989;28;20441;-67
2023/09/08 06:45:17;;;;;;;11.03;10.10;;;21.40;99.90;;;;;;5011951;28;20596;-67
2023/09/08 06:47:43;;;;;;;11.13;10.23;;;21.60;99.90;;;;;;5006869;28;20179;-67
2023/09/08 06:50:09;;;;;;;12.97;11.83;;;21.90;99.90;;;;;;5011357;28;20824;-67
2023/09/08 06:52:35;;;;;;;13.10;11.80;;;22.10;99.90;;;;;;5014052;28;20453;-66
2023/09/08 06:55:01;;;;;;;11.00;10.00;;;22.30;99.90;;;;;;5012512;28;20489;-66
2023/09/08 06:57:26;;;;;;;14.17;10.23;;;22.60;99.90;;;;;;5010907;28;20261;-66
2023/09/08 06:59:52;;;;;;;9.47;8.67;;;22.70;99.90;;;;;;5010871;28;20205;-66
2023/09/08 07:02:17;;;;;;;9.57;8.87;;;22.90;99.90;;;;;;5012195;28;20252;-66
2023/09/08 07:04:43;;;;;;;14.13;9.70;;;23.20;99.90;;;;;;5011513;28;20182;-66
2023/09/08 07:07:10;;;;;;;11.37;10.40;;;23.40;99.90;;;;;;5009921;28;21688;-67
2023/09/08 07:09:36;;;;;;;11.40;9.97;;;23.50;99.90;;;;;;5010038;28;20545;-67
2023/09/08 07:12:06;;;;;;;10.90;9.07;;;23.50;99.90;;;;;;5012360;28;20504;-67
2023/09/08 07:14:32;;;;;;;10.87;9.77;;;23.70;99.90;;;;;;5010775;28;20458;-67
2023/09/08 07:16:57;;;;;;;10.70;9.70;;;23.90;99.90;;;;;;5010008;28;20434;-66
2023/09/08 07:19:23;;;;;;;10.30;9.50;;;24.00;99.90;;;;;;5008928;28;20214;-67
2023/09/08 07:21:48;;;;;;;10.57;9.73;;;24.30;99.90;;;;;;5001446;28;20182;-67
2023/09/08 07:24:14;;;;;;;9.70;8.90;;;24.40;99.90;;;;;;5006773;28;20193;-67
2023/09/08 07:26:39;;;;;;;11.03;10.23;;;24.70;99.90;;;;;;5010086;28;20928;-67
2023/09/08 07:29:05;;;;;;;9.87;9.07;;;25.00;99.90;;;;;;5011317;28;20171;-67
2023/09/08 07:31:31;;;;;;;9.33;8.50;;;25.10;99.90;;;;;;5011629;28;20187;-67
2023/09/08 07:33:56;;;;;;;10.70;9.83;;;25.10;99.90;;;;;;5007901;28;20203;-67
2023/09/08 07:36:22;;;;;;;9.00;8.17;;;25.20;99.90;;;;;;5011538;28;20204;-67
2023/09/08 07:38:47;;;;;;;9.47;8.57;;;25.30;99.90;;;;;;5005237;28;20203;-72
2023/09/08 07:41:13;;;;;;;11.40;8.73;;;25.30;99.90;;;;;;5008630;28;20328;-70
2023/09/08 07:43:40;;;;;;;9.03;8.13;;;25.50;99.90;;;;;;5011652;28;20199;-71
2023/09/08 07:46:06;;;;;;;9.67;8.87;;;26.00;99.90;;;;;;5006877;28;20313;-71
2023/09/08 07:48:32;;;;;;;8.23;7.43;;;26.30;99.90;;;;;;5011429;28;20434;-67
2023/09/08 07:50:59;;;;;;;11.67;9.07;;;26.40;99.90;;;;;;5008146;28;20433;-67
2023/09/08 07:53:26;;;;;;;10.03;9.33;;;26.10;99.90;;;;;;5007095;28;20220;-67
2023/09/08 07:55:51;;;;;;;8.97;8.27;;;26.10;99.90;;;;;;5010741;28;20449;-67
2023/09/08 07:58:17;;;;;;;9.30;8.60;;;26.30;99.90;;;;;;5008213;28;20446;-67
2023/09/08 08:00:42;;;;;;;10.03;9.10;;;26.40;99.90;;;;;;5004639;28;20286;-67
2023/09/08 08:03:08;;;;;;;10.17;9.27;;;26.20;99.90;;;;;;5005325;28;20684;-67
2023/09/08 08:05:34;;;;;;;10.43;9.53;;;26.50;99.90;;;;;;5006966;28;20171;-67
2023/09/08 08:07:59;;;;;;;9.47;8.77;;;26.80;99.90;;;;;;5007799;28;20183;-67
2023/09/08 08:10:25;;;;;;;11.23;9.70;;;27.20;99.90;;;;;;5005695;28;20189;-67
2023/09/08 08:12:50;;;;;;;13.43;10.00;;;27.80;99.90;;;;;;5006124;28;20184;-67
2023/09/08 08:15:18;;;;;;;10.33;9.57;;;28.00;99.90;;;;;;5007733;28;20623;-67
2023/09/08 08:17:44;;;;;;;9.67;8.77;;;28.20;99.90;;;;;;4999865;28;20585;-67
2023/09/08 08:20:16;;;;;;;10.07;9.07;;;28.10;99.90;;;;;;5006784;28;20470;-67
2023/09/08 08:22:42;;;;;;;9.40;8.50;;;28.10;99.90;;;;;;4997591;28;20629;-67
2023/09/08 08:25:08;;;;;;;10.20;9.17;;;28.20;99.90;;;;;;5006535;28;20421;-67
2023/09/08 08:27:33;;;;;;;9.50;8.70;;;28.50;99.90;;;;;;5009450;28;20190;-67
2023/09/08 08:30:00;;;;;;;10.37;9.37;;;28.70;99.90;;;;;;5008668;28;20183;-67
2023/09/08 08:32:27;;;;;;;13.33;9.93;;;28.60;99.90;;;;;;5009044;28;20175;-67
2023/09/08 08:34:52;;;;;;;10.13;9.23;;;28.90;99.90;;;;;;5001929;28;20585;-67
2023/09/08 08:37:18;;;;;;;9.40;8.67;;;29.00;99.90;;;;;;5002316;28;20525;-67
2023/09/08 08:39:43;;;;;;;8.70;8.00;;;28.90;99.90;;;;;;5006260;28;20207;-67
2023/09/08 08:42:10;;;;;;;13.77;9.63;;;29.20;99.90;;;;;;5009744;28;20644;-67
2023/09/08 08:44:37;;;;;;;9.97;8.97;;;29.40;99.90;;;;;;5013425;28;21276;-67
2023/09/08 08:47:03;;;;;;;9.47;8.63;;;29.40;99.90;;;;;;5005318;28;20473;-67
2023/09/08 08:49:31;;;;;;;9.67;8.70;;;29.90;99.90;;;;;;5012227;28;20468;-67
2023/09/08 08:51:58;;;;;;;9.77;8.97;;;30.50;99.30;;;;;;5012278;28;20442;-67
2023/09/08 08:54:24;;;;;;;11.40;8.37;;;30.50;98.20;;;;;;5012445;28;20473;-67
2023/09/08 08:56:51;;;;;;;10.17;9.13;;;30.90;98.20;;;;;;5012800;28;20577;-67
2023/09/08 08:59:16;;;;;;;9.80;8.07;;;31.40;96.80;;;;;;5012780;28;20492;-67
2023/09/08 09:01:42;;;;;;;10.03;8.30;;;31.10;95.80;;;;;;5013797;28;20438;-67
2023/09/08 09:04:09;;;;;;;9.00;8.20;;;31.50;95.40;;;;;;5013904;28;20190;-68
2023/09/08 09:06:35;;;;;;;10.90;9.70;;;31.80;94.60;;;;;;5014438;28;20433;-68
2023/09/08 09:09:04;;;;;;;9.93;9.03;;;32.10;93.60;;;;;;5013481;28;20549;-68
2023/09/08 09:11:31;;;;;;;9.80;9.03;;;32.60;92.60;;;;;;5012273;28;20452;-68
2023/09/08 09:13:57;;;;;;;11.90;9.13;;;33.00;91.40;;;;;;5010810;28;20596;-69
2023/09/08 09:16:22;;;;;;;9.20;8.47;;;33.30;90.60;;;;;;5009741;28;20882;-66
2023/09/08 09:18:59;;;;;;;16.43;10.13;;;33.90;89.30;;;;;;5011862;28;20571;-67
2023/09/08 09:22:00;;;;;;;10.33;9.23;;;34.50;85.50;;;;;;5009554;28;20178;-66
2023/09/08 09:24:40;;;;;;;10.03;9.10;;;35.00;82.20;;;;;;4951668;28;20993;-66
2023/09/08 09:27:07;;;;;;;10.17;9.20;;;35.30;79.20;;;;;;5006607;28;20535;-66
2023/09/08 09:29:34;;;;;;;8.33;7.67;;;35.70;76.10;;;;;;5013361;28;20438;-66
2023/09/08 09:32:02;;;;;;;11.13;10.13;;;35.80;75.70;;;;;;5012901;28;20445;-66
2023/09/08 09:34:28;;;;;;;9.00;8.50;;;36.40;73.20;;;;;;5009272;28;20519;-66
2023/09/08 09:36:53;;;;;;;9.13;8.37;;;37.20;69.30;;;;;;5007080;28;20496;-66
2023/09/08 09:39:20;;;;;;;9.90;9.00;;;37.70;67.70;;;;;;5012193;28;20666;-66
2023/09/08 09:41:48;;;;;;;10.20;9.40;;;38.00;65.00;;;;;;5013363;28;20571;-66
2023/09/08 09:44:14;;;;;;;9.37;8.60;;;38.10;63.70;;;;;;5010271;28;20470;-66
2023/09/08 09:46:46;;;;;;;9.27;8.47;;;38.10;62.80;;;;;;5012498;28;20496;-66
2023/09/08 09:49:19;;;;;;;9.30;8.80;;;38.50;61.00;;;;;;5011062;28;20439;-66
2023/09/08 09:51:50;;;;;;;9.50;8.70;;;39.10;59.10;;;;;;5007772;28;20433;-66
2023/09/08 09:54:16;;;;;;;9.10;8.13;;;39.00;58.40;;;;;;5009633;28;20474;-66
2023/09/08 09:56:43;;;;;;;10.00;9.17;;;39.30;57.00;;;;;;5011255;28;20434;-66
2023/09/08 09:59:11;;;;;;;8.30;7.70;;;39.00;57.00;;;;;;5011192;28;20469;-66
2023/09/08 10:01:37;;;;;;;8.80;8.20;;;38.40;57.10;;;;;;5009533;28;20446;-66
2023/09/08 10:04:04;;;;;;;10.33;8.67;;;38.90;56.50;;;;;;5008586;28;20469;-66
2023/09/08 10:06:35;;;;;;;8.50;7.90;;;39.30;55.70;;;;;;5010735;28;20440;-65
2023/09/08 10:09:04;;;;;;;7.43;6.83;;;39.50;55.20;;;;;;5010485;28;20518;-65
2023/09/08 10:11:38;;;;;;;8.60;8.00;;;39.90;54.50;;;;;;5009046;28;20821;-65
2023/09/08 10:14:04;;;;;;;8.90;7.60;;;40.20;53.40;;;;;;5010814;28;20460;-65
2023/09/08 10:16:35;;;;;;;9.53;8.83;;;41.20;51.90;;;;;;5006735;28;20476;-63
2023/09/08 10:19:08;;;;;;;8.57;8.07;;;41.20;50.50;;;;;;5004820;28;20470;-64
2023/09/08 10:21:39;;;;;;;10.00;8.67;;;42.20;50.00;;;;;;5012406;28;20449;-64
2023/09/08 10:24:15;;;;;;;8.77;8.10;;;42.80;49.10;;;;;;5009936;28;20825;-65
2023/09/08 10:26:44;;;;;;;8.90;8.20;;;42.30;48.50;;;;;;5010930;28;20507;-66
2023/09/08 10:29:11;;;;;;;8.77;8.20;;;40.90;49.50;;;;;;5012938;28;20418;-66
2023/09/08 10:31:37;;;;;;;7.77;7.03;;;41.50;48.80;;;;;;5013172;28;20425;-65
2023/09/08 10:34:04;;;;;;;9.30;8.53;;;41.90;48.00;;;;;;5011592;28;20974;-63
2023/09/08 10:36:29;;;;;;;8.10;7.30;;;42.60;47.10;;;;;;5011614;28;20834;-66
2023/09/08 10:39:41;;;;;;;8.97;8.43;;;43.40;45.80;;;;;;5011756;28;20531;-68
2023/09/08 10:42:22;;;;;;;8.93;8.37;;;43.20;45.20;;;;;;5008622;28;20171;-68
2023/09/08 10:44:47;;;;;;;9.77;8.60;;;43.10;45.20;;;;;;5012622;28;20539;-67
2023/09/08 10:47:13;;;;;;;8.47;7.80;;;43.60;44.70;;;;;;5012347;28;20509;-68
2023/09/08 10:49:40;;;;;;;8.90;8.30;;;43.40;44.50;;;;;;5012337;28;20190;-67
2023/09/08 10:52:11;;;;;;;9.20;8.50;;;43.40;44.00;;;;;;5012627;28;20668;-65
2023/09/08 10:54:44;;;;;;;8.33;7.60;;;43.70;43.60;;;;;;5011253;28;20446;-65
2023/09/08 10:57:17;;;;;;;8.77;8.17;;;44.40;43.10;;;;;;5012946;28;20425;-65
2023/09/08 10:59:57;;;;;;;8.83;7.93;;;44.90;42.10;;;;;;5009525;28;20461;-66
2023/09/08 11:02:47;;;;;;;9.07;8.47;;;44.50;42.10;;;;;;5005298;28;20440;-65
2023/09/08 11:05:15;;;;;;;8.53;8.03;;;44.20;41.80;;;;;;5000082;28;20969;-65
2023/09/08 11:07:42;;;;;;;9.53;8.93;;;44.10;41.40;;;;;;5010954;28;20405;-65
2023/09/08 11:10:08;;;;;;;9.07;8.37;;;43.70;42.10;;;;;;5010624;28;20433;-65
2023/09/08 11:12:34;;;;;;;8.47;7.90;;;44.70;41.30;;;;;;5011190;28;20465;-65
2023/09/08 11:15:04;;;;;;;8.87;8.27;;;45.80;40.40;;;;;;5011930;28;20512;-65
2023/09/08 11:17:31;;;;;;;8.53;8.03;;;45.60;39.70;;;;;;5012211;28;20178;-66
2023/09/08 11:19:57;;;;;;;8.67;7.93;;;45.80;39.70;;;;;;5012411;28;20421;-65
2023/09/08 11:22:25;;;;;;;8.80;8.10;;;46.20;38.80;;;;;;5011631;28;20464;-65
2023/09/08 11:25:00;;;;;;;9.33;8.63;;;45.40;38.70;;;;;;5011445;28;21042;-65
2023/09/08 11:27:27;;;;;;;9.87;9.03;;;44.90;39.30;;;;;;5012273;28;20438;-65
2023/09/08 11:29:53;;;;;;;9.57;8.90;;;45.40;38.70;;;;;;5012268;28;20457;-67
2023/09/08 11:32:18;;;;;;;8.10;7.60;;;45.60;38.20;;;;;;5011712;28;20432;-65
2023/09/08 11:34:44;;;;;;;8.07;7.67;;;45.20;38.40;;;;;;5011906;28;20222;-65
2023/09/08 11:37:10;;;;;;;10.33;8.90;;;46.00;38.00;;;;;;5012122;28;20174;-65
2023/09/08 11:39:40;;;;;;;9.27;8.60;;;46.60;37.70;;;;;;5012183;28;20183;-65
2023/09/08 11:42:07;;;;;;;10.13;9.23;;;46.60;36.90;;;;;;5012175;28;20422;-65
2023/09/08 11:44:34;;;;;;;9.33;8.60;;;46.20;37.40;;;;;;5007569;28;20457;-67
2023/09/08 11:47:03;;;;;;;9.70;9.00;;;46.60;36.90;;;;;;5008440;28;20469;-65
2023/09/08 11:49:34;;;;;;;9.90;9.20;;;47.20;36.30;;;;;;5011234;28;20552;-65
2023/09/08 11:51:59;;;;;;;10.27;9.60;;;47.40;35.50;;;;;;5010018;28;20441;-65
2023/09/08 11:54:25;;;;;;;9.00;8.27;;;47.30;35.40;;;;;;5007152;28;20465;-64
2023/09/08 11:56:51;;;;;;;10.30;9.60;;;46.60;35.50;;;;;;5006776;28;20240;-66
2023/09/08 11:59:18;;;;;;;9.37;8.77;;;46.60;35.40;;;;;;5007192;28;20998;-65
2023/09/08 12:01:44;;;;;;;9.40;8.63;;;46.20;35.80;;;;;;5011943;28;20939;-65
2023/09/08 12:04:22;;;;;;;9.07;8.23;;;46.70;35.50;;;;;;5013392;28;20461;-65
2023/09/08 12:06:49;;;;;;;9.23;8.63;;;47.30;35.30;;;;;;5014020;28;20254;-65
2023/09/08 12:09:16;;;;;;;9.80;8.90;;;47.90;34.80;;;;;;5015386;28;20462;-66
2023/09/08 12:11:42;;;;;;;9.40;8.53;;;48.00;34.50;;;;;;5013618;28;20470;-65
2023/09/08 12:14:10;;;;;;;8.97;8.37;;;48.40;34.10;;;;;;5013062;28;20576;-64
2023/09/08 12:16:36;;;;;;;9.07;8.47;;;47.60;34.20;;;;;;5011934;28;20445;-65
2023/09/08 12:19:02;;;;;;;9.97;9.17;;;47.90;34.00;;;;;;5013150;28;20437;-65
2023/09/08 12:21:27;;;;;;;10.00;9.40;;;48.60;33.50;;;;;;5010128;28;20195;-67
2023/09/08 12:23:54;;;;;;;9.43;8.83;;;48.60;32.80;;;;;;5012478;28;20199;-65
2023/09/08 12:26:20;;;;;;;7.73;7.03;;;48.40;32.60;;;;;;5012789;28;20197;-65
2023/09/08 12:28:46;;;;;;;9.33;8.73;;;48.20;32.80;;;;;;5014500;28;20521;-65
2023/09/08 12:31:16;;;;;;;9.87;9.27;;;48.60;32.80;;;;;;5014515;28;20460;-65
2023/09/08 12:33:43;;;;;;;11.53;10.37;;;48.50;32.10;;;;;;5009684;28;20461;-67